Main page
METAR-TAF:

METAR-TAF

Airports :

Toulouse, France

Toulouse–Blagnac Airport

latitude: 43-38N, longitude: 001-22E, elevation: 152 m

Current weather observation

The report was made 44 minutes ago, at 16:00 UTC
Wind 4 kt from the Northwest, varying between West and North/Northeast
Temperature 25°C
Humidity 50%
Pressure 1015 hPa
Visibility 10 km or more
Broken clouds at a height of 4400 ft

METAR: LFBO 221600Z AUTO 31004KT 280V020 9999 BKN044 25/14 Q1015 NOSIG

Time: 18:44 (16:44 UTC)

Forecast

The report was made 5 hours and 44 minutes ago, at 11:00 UTC
Forecast valid from 22 at 12 UTC to 23 at 18 UTC
Wind 4 kt from the North/Northwest
Visibility 10 km or more
Scattered clouds at a height of 3500 ft
Broken clouds at a height of 4200 ft

TAF: LFBO 221100Z 2212/2318 33004KT 9999 SCT035 BKN042

Weather observations and forecasts of more than 4000 airports (METAR and TAF reports).

The available stations are represented by yellow and red dots on the map.

Hover mouse over dot to see the name of the station.

Then click to see weather observations and forecasts.

To change the map : click on the green buttons with a black cross to zoom in, on the green button with a dash to zoom out, or on the green arrows for adjacent maps.


METAR-TAF: